Union Gap, Washington
Current Conditions -  °F | °C
As of 8:53 AM on Sunday 23 Nov 2014 (Local Time) from KYKM Reporting Station
Clear Clear  
Wind Chill: 32°   Ceiling: Unl
Heat Index: 36°   Visibility: 10mi
Dew Point: 30°   Wind: 5mph
Humidity: 79%   Direction: 250°WSW
Pressure: 30.11"   Gusts: NA
Location:  46.562°N, 120.899°W
Report Text: KYKM 231653Z 25004KT 10SM CLR 02/M01 A3011 RMK AO2 SLP205 T00221011
Loading
Personal Weather Stations






























Interactive Weather Map New forecast layout! Learn more

10-Day Weather Forecast

Advertisements
Track Severe Weather on mobile